Time;durP1;ratioP1;P1;durP2;ratioP2;P2;SDS_P1;SDS_P2;PMS_P1;PMS_P2;Temp;Humidity;BMP_temperature;BMP_pressure;BME280_temperature;BME280_humidity;BME280_pressure;Samples;Min_cycle;Max_cycle;Signal;HPM_P1;HPM_P2
2022/02/27 00:00:13;;;;;;;0.70;0.50;;;1.10;99.90;;;;;;4917506;29;20195;-75
2022/02/27 00:02:39;;;;;;;0.70;0.43;;;1.10;99.90;;;;;;4903209;29;20198;-72
2022/02/27 00:05:05;;;;;;;0.83;0.70;;;1.00;99.90;;;;;;4898531;29;20478;-75
2022/02/27 00:07:30;;;;;;;0.70;0.40;;;1.00;99.90;;;;;;4897449;29;20288;-74
2022/02/27 00:09:57;;;;;;;0.70;0.40;;;1.00;99.90;;;;;;4901486;29;20581;-73
2022/02/27 00:12:23;;;;;;;0.70;0.50;;;0.90;99.90;;;;;;4930451;28;20313;-74
2022/02/27 00:14:48;;;;;;;0.70;0.50;;;0.90;99.90;;;;;;4924628;29;20957;-74
2022/02/27 00:17:14;;;;;;;0.70;0.50;;;0.90;99.90;;;;;;4900802;29;20262;-74
2022/02/27 00:19:39;;;;;;;1.23;1.10;;;0.90;99.90;;;;;;4898669;29;20176;-74
2022/02/27 00:22:05;;;;;;;0.70;0.50;;;0.90;99.90;;;;;;4905362;29;20200;-73
2022/02/27 00:24:30;;;;;;;0.70;0.50;;;0.90;99.90;;;;;;4897323;29;20179;-73
2022/02/27 00:26:56;;;;;;;1.00;0.80;;;0.90;99.90;;;;;;4897650;29;20594;-73
2022/02/27 00:29:22;;;;;;;1.57;1.47;;;0.90;99.90;;;;;;4897611;29;20242;-74
2022/02/27 00:31:47;;;;;;;0.70;0.40;;;0.90;99.90;;;;;;4904309;29;20204;-74
2022/02/27 00:34:13;;;;;;;0.70;0.40;;;0.90;99.90;;;;;;4895780;29;20187;-73
2022/02/27 00:36:38;;;;;;;1.07;0.97;;;0.80;99.90;;;;;;4914935;29;20673;-72
2022/02/27 00:39:04;;;;;;;0.70;0.40;;;0.80;99.90;;;;;;4915372;29;20274;-74
2022/02/27 00:41:30;;;;;;;0.70;0.40;;;0.80;99.90;;;;;;4912030;29;20282;-72
2022/02/27 00:43:55;;;;;;;0.70;0.40;;;0.70;99.90;;;;;;4897990;29;20946;-73
2022/02/27 00:46:21;;;;;;;0.70;0.40;;;0.70;99.90;;;;;;4900451;29;20219;-73
2022/02/27 00:48:46;;;;;;;1.03;0.70;;;0.70;99.90;;;;;;4915732;29;20184;-73
2022/02/27 00:51:12;;;;;;;0.70;0.40;;;0.70;99.90;;;;;;4928711;28;20188;-72
2022/02/27 00:53:38;;;;;;;0.90;0.70;;;0.70;99.90;;;;;;4895950;29;20634;-73
2022/02/27 00:56:04;;;;;;;0.70;0.50;;;0.70;99.90;;;;;;4897751;29;20285;-73
2022/02/27 00:58:29;;;;;;;0.70;0.50;;;0.70;99.90;;;;;;4925383;28;20189;-73
2022/02/27 01:00:55;;;;;;;0.70;0.50;;;0.70;99.90;;;;;;4920187;29;20421;-73
2022/02/27 01:03:20;;;;;;;0.70;0.50;;;0.70;99.90;;;;;;4929553;29;20221;-73
2022/02/27 01:05:46;;;;;;;0.70;0.40;;;0.60;99.90;;;;;;4916381;29;20663;-73
2022/02/27 01:08:11;;;;;;;0.70;0.50;;;0.60;99.90;;;;;;4899325;29;20212;-75
2022/02/27 01:10:37;;;;;;;0.70;0.40;;;0.60;99.90;;;;;;4900068;29;20590;-73
2022/02/27 01:13:03;;;;;;;1.53;1.43;;;0.60;99.90;;;;;;4906283;29;20205;-75
2022/02/27 01:15:29;;;;;;;0.70;0.40;;;0.50;99.90;;;;;;4904016;29;20204;-73
2022/02/27 01:17:54;;;;;;;0.70;0.40;;;0.50;99.90;;;;;;4896772;29;20267;-72
2022/02/27 01:20:20;;;;;;;1.07;0.97;;;0.40;99.90;;;;;;4906794;29;20184;-72
2022/02/27 01:22:45;;;;;;;0.70;0.40;;;0.40;99.90;;;;;;4906893;29;20204;-72
2022/02/27 01:25:11;;;;;;;0.70;0.40;;;0.40;99.90;;;;;;4912427;29;20243;-71
2022/02/27 01:27:37;;;;;;;0.70;0.50;;;0.30;99.90;;;;;;4911355;29;20207;-72
2022/02/27 01:30:05;;;;;;;0.87;0.87;;;0.30;99.90;;;;;;4896813;29;20188;-72
2022/02/27 01:32:30;;;;;;;0.70;0.40;;;0.30;99.90;;;;;;4908013;29;20459;-75
2022/02/27 01:34:56;;;;;;;0.70;0.50;;;0.20;99.90;;;;;;4914486;29;20436;-73
2022/02/27 01:37:21;;;;;;;1.20;1.10;;;0.20;99.90;;;;;;4915847;29;20253;-71
2022/02/27 01:39:47;;;;;;;0.70;0.50;;;0.20;99.90;;;;;;4915288;29;20176;-72
2022/02/27 01:42:14;;;;;;;0.70;0.40;;;0.20;99.90;;;;;;4905883;29;20193;-72
2022/02/27 01:44:41;;;;;;;0.70;0.40;;;0.10;99.90;;;;;;4908850;29;20179;-74
2022/02/27 01:47:10;;;;;;;0.70;0.40;;;0.10;99.90;;;;;;4916164;29;20908;-74
2022/02/27 01:49:36;;;;;;;0.70;0.50;;;0.10;99.90;;;;;;4919011;29;20435;-74
2022/02/27 01:52:03;;;;;;;0.70;0.40;;;0.10;99.90;;;;;;4911006;29;20539;-74
2022/02/27 01:54:30;;;;;;;0.70;0.50;;;0.00;99.90;;;;;;4899973;29;20803;-70
2022/02/27 01:56:56;;;;;;;0.70;0.40;;;0.00;99.90;;;;;;4900232;29;21000;-72
2022/02/27 01:59:21;;;;;;;0.70;0.50;;;0.00;99.90;;;;;;4913106;29;20879;-72
2022/02/27 02:01:47;;;;;;;0.70;0.60;;;-0.10;99.90;;;;;;4912763;29;20452;-75
2022/02/27 02:04:13;;;;;;;0.70;0.50;;;-0.10;99.90;;;;;;4914263;29;20183;-74
2022/02/27 02:06:38;;;;;;;0.70;0.40;;;-0.10;99.90;;;;;;4914633;29;20267;-72
2022/02/27 02:09:05;;;;;;;0.70;0.50;;;-0.10;99.90;;;;;;4899970;29;20269;-71
2022/02/27 02:11:32;;;;;;;0.70;0.50;;;-0.10;99.90;;;;;;4912834;29;20192;-73
2022/02/27 02:13:58;;;;;;;0.70;0.43;;;-0.10;99.90;;;;;;4900186;29;20432;-73
2022/02/27 02:16:24;;;;;;;0.70;0.50;;;-0.20;99.90;;;;;;4901359;29;20567;-72
2022/02/27 02:18:50;;;;;;;0.70;0.40;;;-0.20;99.90;;;;;;4899961;29;20173;-72
2022/02/27 02:21:16;;;;;;;0.70;0.50;;;-0.20;99.90;;;;;;4907274;29;20210;-72
2022/02/27 02:23:42;;;;;;;0.70;0.40;;;-0.20;99.90;;;;;;4916525;29;20463;-73
2022/02/27 02:26:09;;;;;;;0.70;0.40;;;-0.20;99.90;;;;;;4909727;29;20188;-73
2022/02/27 02:28:35;;;;;;;0.83;0.63;;;-0.20;99.90;;;;;;4912073;29;20184;-72
2022/02/27 02:31:01;;;;;;;0.70;0.40;;;-0.20;99.90;;;;;;4917768;29;20890;-73
2022/02/27 02:33:34;;;;;;;0.70;0.40;;;-0.20;99.90;;;;;;4899527;29;20468;-75
2022/02/27 02:36:00;;;;;;;1.10;0.70;;;-0.20;99.90;;;;;;4899541;29;20492;-74
2022/02/27 02:38:26;;;;;;;0.70;0.63;;;-0.20;99.90;;;;;;4899633;29;20475;-73
2022/02/27 02:40:51;;;;;;;0.70;0.50;;;-0.20;99.90;;;;;;4913765;29;20189;-73
2022/02/27 02:43:17;;;;;;;0.70;0.40;;;-0.20;99.90;;;;;;4901047;29;20201;-73
2022/02/27 02:45:42;;;;;;;0.70;0.40;;;-0.20;99.90;;;;;;4918602;29;20183;-75
2022/02/27 02:48:08;;;;;;;0.70;0.40;;;-0.20;99.90;;;;;;4916613;29;20585;-72
2022/02/27 02:50:34;;;;;;;0.70;0.40;;;-0.20;99.90;;;;;;4912212;29;20188;-72
2022/02/27 02:52:59;;;;;;;0.70;0.40;;;-0.20;99.90;;;;;;4902535;29;20207;-73
2022/02/27 02:55:25;;;;;;;0.70;0.40;;;-0.20;99.90;;;;;;4917627;29;20184;-75
2022/02/27 02:57:50;;;;;;;0.70;0.47;;;-0.20;99.90;;;;;;4917637;29;20171;-73
2022/02/27 03:00:16;;;;;;;0.70;0.40;;;-0.20;99.90;;;;;;4917177;29;20275;-73
2022/02/27 03:02:42;;;;;;;0.70;0.63;;;-0.20;99.90;;;;;;4917773;29;20200;-72
2022/02/27 03:05:08;;;;;;;0.70;0.50;;;-0.20;99.90;;;;;;4902073;29;20188;-73
2022/02/27 03:07:35;;;;;;;0.70;0.40;;;-0.20;99.90;;;;;;4917719;29;20196;-72
2022/02/27 03:10:00;;;;;;;0.70;0.40;;;-0.20;99.90;;;;;;4917630;29;20526;-72
2022/02/27 03:12:26;;;;;;;0.70;0.40;;;-0.20;99.90;;;;;;4917300;29;20543;-73
2022/02/27 03:14:52;;;;;;;0.70;0.50;;;-0.10;99.90;;;;;;4917373;29;20195;-73
2022/02/27 03:17:18;;;;;;;0.70;0.40;;;-0.10;99.90;;;;;;4914973;29;20211;-75
2022/02/27 03:19:43;;;;;;;0.70;0.40;;;-0.10;99.90;;;;;;4913388;29;20443;-74
2022/02/27 03:22:09;;;;;;;0.73;0.50;;;-0.10;99.90;;;;;;4907293;29;20214;-74
2022/02/27 03:24:34;;;;;;;0.70;0.40;;;0.00;99.90;;;;;;4931592;28;20175;-72
2022/02/27 03:27:00;;;;;;;0.70;0.40;;;0.00;99.90;;;;;;4901763;29;20203;-73
2022/02/27 03:29:25;;;;;;;0.70;0.50;;;0.00;99.90;;;;;;4915988;29;20176;-74
2022/02/27 03:31:51;;;;;;;0.70;0.50;;;0.00;99.90;;;;;;4910864;29;20614;-74
2022/02/27 03:34:16;;;;;;;0.70;0.40;;;0.00;99.90;;;;;;4907831;29;20207;-75
2022/02/27 03:36:42;;;;;;;0.70;0.50;;;0.00;99.90;;;;;;4916870;29;20282;-74
2022/02/27 03:39:07;;;;;;;0.70;0.50;;;0.00;99.90;;;;;;4916688;29;20180;-74
2022/02/27 03:41:33;;;;;;;0.70;0.40;;;0.00;99.90;;;;;;4913071;29;20203;-73
2022/02/27 03:43:59;;;;;;;0.70;0.40;;;0.00;99.90;;;;;;4905662;29;20274;-72
2022/02/27 03:46:24;;;;;;;0.70;0.40;;;0.00;99.90;;;;;;4916842;29;20180;-73
2022/02/27 03:48:50;;;;;;;1.67;1.00;;;-0.10;99.90;;;;;;4917711;29;20190;-73
2022/02/27 03:51:15;;;;;;;0.70;0.50;;;-0.10;99.90;;;;;;4899935;29;20180;-73
2022/02/27 03:53:41;;;;;;;0.70;0.50;;;-0.10;99.90;;;;;;4898296;29;20708;-75
2022/02/27 03:56:06;;;;;;;0.70;0.40;;;-0.10;99.90;;;;;;4898054;29;20200;-75
2022/02/27 03:58:32;;;;;;;1.37;1.27;;;-0.20;99.90;;;;;;4898622;29;20223;-74
2022/02/27 04:00:58;;;;;;;0.70;0.40;;;-0.20;99.90;;;;;;4928095;28;20176;-73
2022/02/27 04:03:23;;;;;;;0.70;0.50;;;-0.20;99.90;;;;;;4908412;29;20251;-72
2022/02/27 04:05:49;;;;;;;0.70;0.57;;;-0.30;99.90;;;;;;4931222;28;20230;-75
2022/02/27 04:08:14;;;;;;;0.80;0.63;;;-0.30;99.90;;;;;;4913430;29;20176;-75
2022/02/27 04:10:43;;;;;;;0.70;0.40;;;-0.40;99.90;;;;;;4909773;29;20206;-72
2022/02/27 04:13:08;;;;;;;1.10;1.00;;;-0.40;99.90;;;;;;4907339;29;20624;-72
2022/02/27 04:15:34;;;;;;;0.80;0.70;;;-0.40;99.90;;;;;;4897725;29;20459;-73
2022/02/27 04:17:59;;;;;;;0.70;0.50;;;-0.50;99.90;;;;;;4897728;29;20299;-72
2022/02/27 04:20:25;;;;;;;0.70;0.40;;;-0.50;99.90;;;;;;4908729;29;20175;-73
2022/02/27 04:22:50;;;;;;;0.70;0.50;;;-0.50;99.90;;;;;;4916312;29;20621;-72
2022/02/27 04:25:16;;;;;;;0.70;0.50;;;-0.50;99.90;;;;;;4916429;29;20648;-73
2022/02/27 04:27:42;;;;;;;0.70;0.50;;;-0.50;99.90;;;;;;4903481;29;20174;-72
2022/02/27 04:30:08;;;;;;;0.70;0.40;;;-0.60;99.90;;;;;;4913367;29;20571;-72
2022/02/27 04:32:33;;;;;;;0.70;0.53;;;-0.60;99.90;;;;;;4916065;29;20206;-72
2022/02/27 04:34:59;;;;;;;0.70;0.40;;;-0.60;99.90;;;;;;4900627;29;20425;-72
2022/02/27 04:37:25;;;;;;;0.70;0.60;;;-0.60;99.90;;;;;;4919922;28;20656;-71
2022/02/27 04:39:50;;;;;;;0.70;0.60;;;-0.60;99.90;;;;;;4903456;29;20653;-71
2022/02/27 04:42:16;;;;;;;0.70;0.40;;;-0.60;99.90;;;;;;4915715;29;20227;-72
2022/02/27 04:44:41;;;;;;;0.70;0.40;;;-0.70;99.90;;;;;;4916062;29;20230;-74
2022/02/27 04:47:08;;;;;;;0.70;0.50;;;-0.70;99.90;;;;;;4899787;29;20261;-73
2022/02/27 04:49:34;;;;;;;0.70;0.50;;;-0.70;99.90;;;;;;4912071;29;20202;-72
2022/02/27 04:51:59;;;;;;;0.70;0.50;;;-0.70;99.90;;;;;;4897020;29;20448;-73
2022/02/27 04:54:25;;;;;;;0.70;0.50;;;-0.70;99.90;;;;;;4896986;29;20181;-73
2022/02/27 04:56:51;;;;;;;0.70;0.50;;;-0.70;99.90;;;;;;4903598;29;20673;-72
2022/02/27 04:59:16;;;;;;;0.70;0.40;;;-0.70;99.90;;;;;;4914998;29;20195;-72
2022/02/27 05:01:42;;;;;;;0.70;0.40;;;-0.70;99.90;;;;;;4927217;28;20202;-74
2022/02/27 05:04:08;;;;;;;0.70;0.40;;;-0.70;99.90;;;;;;4912426;29;20252;-73
2022/02/27 05:06:33;;;;;;;0.70;0.40;;;-0.70;99.90;;;;;;4897549;29;20428;-73
2022/02/27 05:08:59;;;;;;;0.70;0.40;;;-0.70;99.90;;;;;;4897200;29;20173;-72
2022/02/27 05:11:25;;;;;;;0.70;0.50;;;-0.80;99.90;;;;;;4914537;29;20203;-72
2022/02/27 05:13:50;;;;;;;0.70;0.40;;;-0.80;99.90;;;;;;4926874;28;20583;-72
2022/02/27 05:16:16;;;;;;;0.70;0.50;;;-0.80;99.90;;;;;;4926742;29;20548;-72
2022/02/27 05:18:41;;;;;;;0.70;0.40;;;-0.80;99.90;;;;;;4901427;29;20636;-73
2022/02/27 05:21:07;;;;;;;0.70;0.50;;;-0.80;99.90;;;;;;4896454;29;20209;-71
2022/02/27 05:23:32;;;;;;;0.70;0.40;;;-0.80;99.90;;;;;;4908051;29;20262;-73
2022/02/27 05:25:58;;;;;;;0.70;0.50;;;-0.80;99.90;;;;;;4915902;29;20187;-73
2022/02/27 05:28:25;;;;;;;0.70;0.40;;;-0.80;99.90;;;;;;4906840;29;20186;-72
2022/02/27 05:30:52;;;;;;;0.70;0.50;;;-0.80;99.90;;;;;;4909154;29;20496;-73
2022/02/27 05:33:17;;;;;;;0.70;0.50;;;-0.80;99.90;;;;;;4896674;29;20855;-73
2022/02/27 05:35:43;;;;;;;0.90;0.60;;;-0.80;99.90;;;;;;4909850;29;20455;-72
2022/02/27 05:38:08;;;;;;;0.70;0.40;;;-0.80;99.90;;;;;;4906460;29;20187;-72
2022/02/27 05:40:34;;;;;;;0.70;0.50;;;-0.80;99.90;;;;;;4911023;29;20658;-74
2022/02/27 05:42:59;;;;;;;0.70;0.40;;;-0.80;99.90;;;;;;4897013;29;20211;-73
2022/02/27 05:45:25;;;;;;;0.70;0.50;;;-0.80;99.90;;;;;;4896969;29;20197;-73
2022/02/27 05:47:51;;;;;;;0.70;0.40;;;-0.80;99.90;;;;;;4897001;29;20211;-72
2022/02/27 05:50:17;;;;;;;0.70;0.40;;;-0.70;99.90;;;;;;4928131;29;20181;-73
2022/02/27 05:52:42;;;;;;;0.70;0.40;;;-0.70;99.90;;;;;;4915178;29;20834;-73
2022/02/27 05:55:09;;;;;;;0.70;0.40;;;-0.70;99.90;;;;;;4914873;29;20201;-75
2022/02/27 05:57:34;;;;;;;0.70;0.50;;;-0.70;99.90;;;;;;4914906;29;20840;-75
2022/02/27 06:00:00;;;;;;;2.10;0.83;;;-0.70;99.90;;;;;;4900045;29;20577;-74
2022/02/27 06:02:25;;;;;;;1.20;0.70;;;-0.70;99.90;;;;;;4914884;29;20199;-74
2022/02/27 06:04:51;;;;;;;0.70;0.40;;;-0.70;99.90;;;;;;4908478;29;20179;-72
2022/02/27 06:07:16;;;;;;;0.70;0.40;;;-0.70;99.90;;;;;;4904565;29;20180;-72
2022/02/27 06:09:42;;;;;;;0.70;0.40;;;-0.70;99.90;;;;;;4909256;29;20316;-72
2022/02/27 06:12:08;;;;;;;1.03;0.93;;;-0.60;99.90;;;;;;4929259;28;20673;-72
2022/02/27 06:14:33;;;;;;;0.70;0.40;;;-0.70;99.90;;;;;;4914849;29;20265;-73
2022/02/27 06:16:59;;;;;;;1.47;1.37;;;-0.60;99.90;;;;;;4922187;28;20200;-75
2022/02/27 06:19:24;;;;;;;0.70;0.40;;;-0.70;99.90;;;;;;4907008;29;20175;-71
2022/02/27 06:21:50;;;;;;;0.70;0.43;;;-0.70;99.90;;;;;;4914467;29;20692;-72
2022/02/27 06:24:15;;;;;;;0.70;0.40;;;-0.70;99.90;;;;;;4914674;29;20172;-73
2022/02/27 06:26:41;;;;;;;0.70;0.50;;;-0.70;99.90;;;;;;4916473;28;20206;-71
2022/02/27 06:29:06;;;;;;;2.00;1.90;;;-0.70;99.90;;;;;;4911891;29;20263;-74
2022/02/27 06:31:32;;;;;;;0.70;0.40;;;-0.70;99.90;;;;;;4914873;29;20213;-74
2022/02/27 06:33:58;;;;;;;0.70;0.40;;;-0.70;99.90;;;;;;4910490;29;20176;-73
2022/02/27 06:36:23;;;;;;;0.70;0.40;;;-0.70;99.90;;;;;;4916591;29;20231;-74
2022/02/27 06:38:49;;;;;;;0.70;0.40;;;-0.70;99.90;;;;;;4913556;29;20183;-72
2022/02/27 06:41:15;;;;;;;0.70;0.40;;;-0.70;99.90;;;;;;4918166;29;20569;-73
2022/02/27 06:43:42;;;;;;;0.70;0.40;;;-0.70;99.90;;;;;;4917951;29;20211;-71
2022/02/27 06:46:08;;;;;;;0.70;0.50;;;-0.60;99.90;;;;;;4916421;29;20432;-73
2022/02/27 06:48:33;;;;;;;0.70;0.50;;;-0.60;99.90;;;;;;4911233;29;20878;-72
2022/02/27 06:50:59;;;;;;;0.70;0.40;;;-0.50;99.90;;;;;;4910330;29;20180;-71
2022/02/27 06:53:24;;;;;;;1.17;1.07;;;-0.50;99.90;;;;;;4899863;29;20200;-73
2022/02/27 06:55:50;;;;;;;0.70;0.50;;;-0.50;99.90;;;;;;4899180;29;20230;-73
2022/02/27 06:58:19;;;;;;;0.70;0.40;;;-0.50;99.90;;;;;;4926508;29;20275;-72
2022/02/27 07:00:46;;;;;;;0.70;0.40;;;-0.50;99.90;;;;;;4899522;29;20259;-74
2022/02/27 07:03:11;;;;;;;0.70;0.40;;;-0.40;99.90;;;;;;4912219;29;20444;-74
2022/02/27 07:05:37;;;;;;;0.70;0.40;;;-0.40;99.90;;;;;;4917503;29;20454;-73
2022/02/27 07:08:03;;;;;;;0.70;0.40;;;-0.30;99.90;;;;;;4915037;29;20239;-73
2022/02/27 07:10:28;;;;;;;0.70;0.40;;;-0.20;99.90;;;;;;4899778;29;20191;-73
2022/02/27 07:12:54;;;;;;;0.70;0.40;;;-0.10;99.90;;;;;;4899342;29;20683;-73
2022/02/27 07:15:20;;;;;;;0.70;0.50;;;0.00;99.90;;;;;;4905776;29;20232;-73
2022/02/27 07:17:45;;;;;;;0.70;0.40;;;0.10;99.90;;;;;;4932317;29;20650;-72
2022/02/27 07:20:11;;;;;;;0.70;0.40;;;0.20;99.90;;;;;;4917805;29;20416;-72
2022/02/27 07:22:37;;;;;;;0.70;0.50;;;0.30;99.90;;;;;;4904967;29;20198;-72
2022/02/27 07:25:07;;;;;;;0.70;0.40;;;0.50;99.90;;;;;;4913944;29;20612;-72
2022/02/27 07:27:34;;;;;;;0.70;0.40;;;0.60;99.90;;;;;;4911997;29;20443;-73
2022/02/27 07:30:00;;;;;;;0.70;0.40;;;0.60;99.90;;;;;;4898755;29;20840;-72
2022/02/27 07:32:26;;;;;;;0.70;0.50;;;0.80;99.90;;;;;;4898541;29;20467;-71
2022/02/27 07:34:52;;;;;;;0.70;0.40;;;0.90;99.90;;;;;;4912403;29;20429;-72
2022/02/27 07:37:17;;;;;;;0.80;0.80;;;1.00;99.90;;;;;;4914928;29;20458;-73
2022/02/27 07:39:43;;;;;;;0.70;0.40;;;1.10;99.90;;;;;;4916443;28;20176;-72
2022/02/27 07:42:09;;;;;;;0.70;0.50;;;1.30;99.90;;;;;;4917336;29;20281;-72
2022/02/27 07:44:34;;;;;;;0.70;0.50;;;1.50;99.90;;;;;;4916670;29;20250;-72
2022/02/27 07:47:00;;;;;;;0.70;0.43;;;1.60;99.90;;;;;;4916832;29;20262;-72
2022/02/27 07:49:26;;;;;;;0.70;0.40;;;1.80;99.90;;;;;;4916452;29;20194;-73
2022/02/27 07:51:53;;;;;;;0.70;0.50;;;2.00;99.90;;;;;;4914492;29;20234;-73
2022/02/27 07:54:18;;;;;;;0.70;0.40;;;2.20;99.90;;;;;;4905329;29;20512;-74
2022/02/27 07:56:45;;;;;;;0.80;0.80;;;2.40;99.90;;;;;;4898135;29;20471;-75
2022/02/27 07:59:11;;;;;;;0.83;0.63;;;2.70;99.90;;;;;;4912549;29;20668;-75
2022/02/27 08:01:36;;;;;;;0.70;0.40;;;2.90;99.90;;;;;;4916946;29;20448;-73
2022/02/27 08:04:02;;;;;;;0.70;0.50;;;3.20;99.90;;;;;;4901199;29;20209;-73
2022/02/27 08:06:27;;;;;;;0.70;0.50;;;3.70;99.90;;;;;;4905509;29;20187;-73
2022/02/27 08:08:53;;;;;;;0.70;0.50;;;4.40;99.90;;;;;;4915536;29;20652;-73
2022/02/27 08:11:19;;;;;;;0.70;0.60;;;5.30;99.90;;;;;;4910594;29;20178;-72
2022/02/27 08:13:44;;;;;;;0.70;0.50;;;6.30;99.90;;;;;;4897635;29;20259;-73
2022/02/27 08:16:10;;;;;;;0.90;0.90;;;7.20;99.90;;;;;;4914639;29;20605;-73
2022/02/27 08:18:36;;;;;;;0.80;0.80;;;8.10;99.90;;;;;;4915173;29;20244;-72
2022/02/27 08:21:02;;;;;;;0.90;0.80;;;8.80;99.90;;;;;;4912393;29;20180;-72
2022/02/27 08:23:27;;;;;;;0.70;0.60;;;9.60;99.90;;;;;;4910327;29;20230;-72
2022/02/27 08:25:53;;;;;;;0.70;0.50;;;10.20;99.90;;;;;;4915510;29;20431;-72
2022/02/27 08:28:19;;;;;;;1.20;1.10;;;10.90;99.90;;;;;;4911973;29;20186;-73
2022/02/27 08:30:45;;;;;;;0.70;0.50;;;11.60;99.90;;;;;;4911182;29;20463;-72
2022/02/27 08:33:11;;;;;;;2.10;2.00;;;12.30;91.70;;;;;;4915254;29;20485;-72
2022/02/27 08:35:37;;;;;;;5.33;0.73;;;12.90;85.00;;;;;;4909563;29;20651;-70
2022/02/27 08:38:02;;;;;;;1.30;0.80;;;13.50;76.80;;;;;;4905613;29;20299;-70
2022/02/27 08:40:28;;;;;;;1.20;1.10;;;14.00;65.20;;;;;;4915007;29;20186;-71
2022/02/27 08:43:00;;;;;;;0.90;0.60;;;14.40;62.40;;;;;;4920808;29;20202;-71
2022/02/27 08:45:26;;;;;;;4.93;1.30;;;14.70;59.90;;;;;;4916521;28;20176;-70
2022/02/27 08:47:53;;;;;;;1.53;0.70;;;15.00;58.00;;;;;;4900216;29;20432;-71
2022/02/27 08:50:19;;;;;;;1.30;0.70;;;15.50;57.80;;;;;;4915942;29;20427;-70
2022/02/27 08:52:44;;;;;;;1.00;0.87;;;15.70;56.10;;;;;;4916044;29;20559;-70
2022/02/27 08:55:12;;;;;;;0.90;0.80;;;16.10;56.30;;;;;;4912550;29;20190;-70
2022/02/27 08:57:38;;;;;;;0.97;0.87;;;16.50;55.40;;;;;;4914868;29;20211;-71
2022/02/27 09:00:05;;;;;;;1.10;1.00;;;16.90;54.90;;;;;;4915519;29;20868;-71
2022/02/27 09:02:31;;;;;;;0.90;0.70;;;17.30;53.80;;;;;;4913770;29;20479;-71
2022/02/27 09:04:56;;;;;;;1.20;1.10;;;17.80;53.00;;;;;;4905231;29;20463;-71
2022/02/27 09:07:22;;;;;;;1.03;0.77;;;18.10;51.40;;;;;;4912849;29;20658;-71
2022/02/27 09:09:48;;;;;;;2.23;1.10;;;18.40;49.00;;;;;;4910850;29;20183;-71
2022/02/27 09:12:13;;;;;;;0.80;0.60;;;18.60;48.70;;;;;;4911964;29;20757;-71
2022/02/27 09:14:42;;;;;;;0.93;0.90;;;18.80;48.60;;;;;;4902127;29;20189;-70
2022/02/27 09:17:08;;;;;;;1.73;1.07;;;19.30;48.80;;;;;;4908678;29;20202;-71
2022/02/27 09:19:33;;;;;;;2.40;2.20;;;19.50;47.00;;;;;;4915420;29;20416;-71
2022/02/27 09:21:59;;;;;;;7.03;1.13;;;19.70;46.40;;;;;;4911472;29;20451;-71
2022/02/27 09:24:25;;;;;;;1.53;0.90;;;19.90;46.60;;;;;;4908816;29;20658;-71
2022/02/27 09:26:50;;;;;;;1.03;0.80;;;20.10;46.10;;;;;;4908107;29;20183;-70
2022/02/27 09:29:16;;;;;;;1.17;1.07;;;20.30;45.70;;;;;;4931050;29;20190;-71
2022/02/27 09:31:42;;;;;;;1.17;0.80;;;20.40;44.70;;;;;;4921693;29;20431;-70
2022/02/27 09:34:08;;;;;;;2.80;2.00;;;20.60;44.70;;;;;;4915403;29;20180;-71
2022/02/27 09:36:34;;;;;;;2.20;1.50;;;20.90;44.40;;;;;;4915610;29;20199;-72
2022/02/27 09:39:00;;;;;;;1.87;1.70;;;21.00;44.40;;;;;;4915311;29;20431;-71
2022/02/27 09:41:26;;;;;;;0.80;0.63;;;21.20;43.40;;;;;;4915702;29;20793;-71
2022/02/27 09:43:58;;;;;;;1.67;1.30;;;21.20;43.00;;;;;;4912153;29;20172;-71
2022/02/27 09:46:26;;;;;;;1.37;1.03;;;21.20;42.60;;;;;;4903421;29;20179;-71
2022/02/27 09:48:52;;;;;;;3.20;1.60;;;21.30;42.80;;;;;;4908598;29;20997;-71
2022/02/27 09:51:19;;;;;;;1.10;0.90;;;21.20;42.60;;;;;;4905949;29;20438;-71
2022/02/27 09:53:45;;;;;;;0.77;0.67;;;21.10;42.00;;;;;;4915437;29;20427;-71
2022/02/27 09:56:11;;;;;;;5.27;1.20;;;21.10;41.70;;;;;;4913487;29;20514;-71
2022/02/27 09:58:37;;;;;;;1.30;1.20;;;21.10;42.00;;;;;;4915136;29;20183;-71
2022/02/27 10:01:04;;;;;;;0.70;0.50;;;21.20;42.00;;;;;;4907153;29;20460;-70
2022/02/27 10:03:31;;;;;;;0.80;0.70;;;21.30;41.20;;;;;;4907628;29;20172;-70
2022/02/27 10:06:08;;;;;;;1.00;0.77;;;21.40;41.30;;;;;;4914583;29;20431;-72
2022/02/27 10:08:42;;;;;;;1.00;0.80;;;21.60;41.50;;;;;;4912910;29;20439;-71
2022/02/27 10:11:12;;;;;;;1.57;0.80;;;22.00;41.00;;;;;;4900367;29;20427;-71
2022/02/27 10:13:45;;;;;;;4.83;1.20;;;22.30;40.40;;;;;;4898680;29;20938;-70
2022/02/27 10:16:31;;;;;;;1.13;1.07;;;22.50;40.40;;;;;;4909613;29;20467;-71
2022/02/27 10:18:59;;;;;;;3.43;0.77;;;22.30;39.30;;;;;;4909568;29;20434;-70
2022/02/27 10:21:27;;;;;;;0.93;0.83;;;22.10;38.00;;;;;;4908578;29;20439;-71
2022/02/27 10:24:04;;;;;;;1.17;0.73;;;22.00;38.00;;;;;;4908105;29;20511;-70
2022/02/27 10:26:32;;;;;;;1.63;1.53;;;22.00;38.70;;;;;;4909362;29;20993;-72
2022/02/27 10:29:18;;;;;;;1.97;1.73;;;22.00;38.40;;;;;;4931654;29;20427;-71
2022/02/27 10:31:46;;;;;;;0.90;0.70;;;22.20;38.30;;;;;;4905842;29;20969;-73
2022/02/27 10:34:13;;;;;;;0.87;0.80;;;22.50;38.20;;;;;;4913109;29;21025;-71
2022/02/27 10:36:50;;;;;;;1.30;1.17;;;22.70;37.60;;;;;;4907807;29;20458;-72
2022/02/27 10:39:26;;;;;;;0.80;0.63;;;22.80;37.50;;;;;;4918555;29;20463;-72
2022/02/27 10:41:51;;;;;;;0.90;0.70;;;22.90;37.50;;;;;;4918368;29;20434;-71
2022/02/27 10:44:24;;;;;;;1.43;0.70;;;23.00;37.40;;;;;;4932543;29;20428;-71
2022/02/27 10:47:14;;;;;;;1.30;0.83;;;23.10;37.60;;;;;;4933043;28;20328;-72
2022/02/27 10:49:40;;;;;;;0.80;0.60;;;23.00;37.80;;;;;;4918372;29;20419;-71
2022/02/27 10:52:17;;;;;;;1.43;1.03;;;23.30;38.30;;;;;;4917041;29;20997;-74
2022/02/27 10:54:45;;;;;;;0.70;0.53;;;23.60;37.80;;;;;;4915603;29;20969;-73
2022/02/27 10:57:26;;;;;;;1.67;0.97;;;23.60;36.70;;;;;;4918104;29;20554;-72
2022/02/27 10:59:51;;;;;;;1.30;0.80;;;23.60;36.60;;;;;;4918087;29;20918;-72
2022/02/27 11:02:17;;;;;;;1.83;0.70;;;23.60;36.30;;;;;;4932266;28;20435;-72
2022/02/27 11:04:44;;;;;;;1.00;0.90;;;24.10;36.60;;;;;;4913181;29;20180;-72
2022/02/27 11:07:10;;;;;;;1.10;0.80;;;24.50;36.70;;;;;;4917822;29;20482;-71
2022/02/27 11:09:35;;;;;;;8.43;0.97;;;24.50;35.80;;;;;;4913494;29;20838;-71
2022/02/27 11:12:01;;;;;;;0.90;0.80;;;24.50;35.00;;;;;;4914465;29;20239;-72
2022/02/27 11:14:30;;;;;;;1.00;0.70;;;24.50;35.10;;;;;;4901317;29;20318;-71
2022/02/27 11:16:57;;;;;;;0.90;0.70;;;23.90;34.70;;;;;;4912270;29;20202;-70
2022/02/27 11:19:23;;;;;;;0.90;0.70;;;23.50;35.30;;;;;;4912032;29;20419;-70
2022/02/27 11:21:50;;;;;;;1.40;1.20;;;23.50;36.00;;;;;;4911175;29;20446;-70
2022/02/27 11:24:18;;;;;;;0.83;0.63;;;23.50;35.60;;;;;;4914121;29;20435;-70
2022/02/27 11:26:43;;;;;;;0.97;0.77;;;23.50;35.30;;;;;;4911175;29;20919;-70
2022/02/27 11:29:10;;;;;;;1.00;0.90;;;23.70;35.50;;;;;;4912444;29;20424;-72
2022/02/27 11:31:38;;;;;;;1.43;1.33;;;23.90;35.40;;;;;;4911973;29;20231;-71
2022/02/27 11:34:14;;;;;;;0.97;0.70;;;24.20;35.30;;;;;;4915463;29;20431;-71
2022/02/27 11:36:40;;;;;;;0.90;0.73;;;24.30;35.00;;;;;;4913943;29;20549;-73
2022/02/27 11:40:27;;;;;;;0.93;0.83;;;24.20;33.70;;;;;;4917393;29;20411;-72
2022/02/27 11:41:52;;;;;;;2.60;1.07;;;24.70;34.50;;;;;;4917182;29;20451;-72
2022/02/27 11:44:17;;;;;;;0.90;0.80;;;25.20;35.00;;;;;;4916876;29;20428;-71
2022/02/27 11:46:45;;;;;;;1.20;1.10;;;25.30;33.80;;;;;;4930422;28;20190;-72
2022/02/27 11:49:23;;;;;;;0.90;0.60;;;25.20;33.80;;;;;;4901749;29;20271;-71
2022/02/27 11:52:09;;;;;;;0.80;0.70;;;25.40;33.90;;;;;;4903983;29;20459;-71
2022/02/27 11:54:39;;;;;;;1.53;1.20;;;25.10;34.20;;;;;;4902474;29;20428;-72
2022/02/27 11:57:16;;;;;;;1.00;0.80;;;25.50;35.00;;;;;;4915307;29;20463;-72
2022/02/27 12:00:10;;;;;;;0.90;0.60;;;25.90;34.60;;;;;;4915485;29;20450;-73
2022/02/27 12:02:44;;;;;;;0.90;0.63;;;26.60;34.50;;;;;;4913145;29;20452;-72
2022/02/27 12:05:13;;;;;;;1.10;0.80;;;26.90;33.20;;;;;;4930318;28;20466;-71
2022/02/27 12:07:57;;;;;;;1.30;1.00;;;26.30;32.90;;;;;;4898070;29;20787;-71
2022/02/27 12:10:39;;;;;;;0.80;0.80;;;26.40;32.80;;;;;;4897325;29;20480;-71
2022/02/27 12:13:31;;;;;;;1.17;1.07;;;26.50;33.10;;;;;;4911579;29;20965;-71
2022/02/27 12:16:13;;;;;;;0.80;0.63;;;26.20;32.40;;;;;;4915898;29;20467;-72
2022/02/27 12:18:51;;;;;;;0.93;0.83;;;26.60;33.10;;;;;;4922170;29;20447;-71
2022/02/27 12:21:39;;;;;;;1.37;1.23;;;27.10;32.50;;;;;;4913350;29;20424;-71
2022/02/27 12:24:13;;;;;;;1.30;1.20;;;27.50;32.50;;;;;;4911555;29;20424;-72
2022/02/27 12:26:50;;;;;;;1.10;1.00;;;27.30;32.00;;;;;;4903460;29;20419;-71
2022/02/27 12:29:24;;;;;;;1.23;0.90;;;27.50;32.40;;;;;;4914907;29;20427;-71
2022/02/27 12:31:51;;;;;;;0.80;0.60;;;27.60;32.10;;;;;;4910457;29;20446;-71
2022/02/27 12:34:18;;;;;;;0.80;0.60;;;27.30;32.20;;;;;;4906193;29;20948;-71
2022/02/27 12:36:59;;;;;;;0.93;0.73;;;27.60;32.50;;;;;;4911208;29;20514;-71
2022/02/27 12:39:25;;;;;;;1.07;0.77;;;27.70;32.00;;;;;;4916386;29;20414;-71
2022/02/27 12:41:54;;;;;;;1.00;0.90;;;27.90;32.40;;;;;;4908644;29;20449;-71
2022/02/27 12:44:26;;;;;;;0.90;0.73;;;28.00;31.80;;;;;;4898238;29;20169;-71
2022/02/27 12:46:55;;;;;;;1.67;1.23;;;27.90;31.90;;;;;;4907932;29;21009;-71
2022/02/27 12:52:17;;;;;;;5.80;1.73;;;28.90;31.30;;;;;;4905786;29;20967;-71